Time;durP1;ratioP1;P1;durP2;ratioP2;P2;SDS_P1;SDS_P2;PMS_P1;PMS_P2;Temp;Humidity;BMP_temperature;BMP_pressure;BME280_temperature;BME280_humidity;BME280_pressure;Samples;Min_cycle;Max_cycle;Signal;HPM_P1;HPM_P2
2022/03/11 00:01:52;;;;;;;8.02;4.00;;;;;;;-3.05;69.32;97865.19;5044530;28;20148;-56
2022/03/11 00:04:36;;;;;;;10.15;3.63;;;;;;;-3.04;68.17;97861.41;5033634;28;20056;-62
2022/03/11 00:07:03;;;;;;;9.32;4.13;;;;;;;-3.46;66.68;97825.41;5043978;28;20140;-57
2022/03/11 00:09:30;;;;;;;6.53;3.08;;;;;;;-2.97;67.56;97861.97;5042253;28;20135;-55
2022/03/11 00:11:56;;;;;;;0.98;0.93;;;;;;;-3.12;66.53;97867.34;5044115;28;20431;-56
2022/03/11 00:14:24;;;;;;;2.88;1.40;;;;;;;-3.94;65.33;97790.47;5044264;28;20151;-56
2022/03/11 00:16:50;;;;;;;6.28;2.78;;;;;;;-3.47;63.82;97888.78;5043791;28;20107;-62
2022/03/11 00:19:17;;;;;;;6.53;1.88;;;;;;;-3.49;62.42;97991.09;5042192;28;20056;-62
2022/03/11 00:21:44;;;;;;;11.57;3.58;;;;;;;-3.47;64.17;97877.94;5043831;28;20560;-62
2022/03/11 00:24:12;;;;;;;5.53;2.88;;;;;;;-3.48;62.35;97868.22;5043780;28;20136;-58
2022/03/11 00:26:39;;;;;;;5.72;1.98;;;;;;;-3.74;63.37;97833.91;5044021;28;20171;-62
2022/03/11 00:29:04;;;;;;;6.65;2.45;;;;;;;-3.47;63.28;97873.38;5043683;28;20578;-62
2022/03/11 00:31:31;;;;;;;7.90;1.15;;;;;;;-3.45;64.73;97875.81;5041951;28;20055;-55
2022/03/11 00:33:59;;;;;;;3.63;1.70;;;;;;;-3.46;64.38;97871.44;5043795;28;20055;-62
2022/03/11 00:36:25;;;;;;;12.43;4.13;;;;;;;-3.26;65.20;97869.69;5043491;28;20131;-57
2022/03/11 00:38:52;;;;;;;11.38;4.15;;;;;;;-3.71;65.02;97812.56;5043370;28;20077;-62
2022/03/11 00:41:19;;;;;;;6.57;2.13;;;;;;;-3.35;64.08;97881.31;5042497;28;20084;-62
2022/03/11 00:43:46;;;;;;;4.18;2.45;;;;;;;-3.45;60.67;97875.81;5043141;28;20049;-62
2022/03/11 00:46:13;;;;;;;9.07;2.40;;;;;;;-3.64;59.45;97878.13;5043302;28;20060;-55
2022/03/11 00:48:39;;;;;;;9.68;3.55;;;;;;;-3.70;60.19;97868.31;5042979;28;20136;-61
2022/03/11 00:51:06;;;;;;;8.75;3.00;;;;;;;-3.71;59.41;97879.41;5043558;28;20517;-54
2022/03/11 00:53:33;;;;;;;6.53;2.13;;;;;;;-3.90;58.74;97878.16;5043392;28;20048;-55
2022/03/11 00:55:59;;;;;;;8.60;2.55;;;;;;;-3.82;59.29;97880.38;5043980;28;20379;-54
2022/03/11 00:58:26;;;;;;;8.38;3.15;;;;;;;-4.06;60.57;97830.44;5043685;28;20056;-62
2022/03/11 01:00:53;;;;;;;7.70;3.08;;;;;;;-3.77;60.24;97866.91;5043191;28;20139;-62
2022/03/11 01:03:20;;;;;;;9.43;3.15;;;;;;;-3.81;61.81;97882.03;5043505;28;20056;-55
2022/03/11 01:05:47;;;;;;;3.10;1.70;;;;;;;-4.09;62.21;97863.38;5042064;28;20122;-55
2022/03/11 01:08:13;;;;;;;10.35;3.30;;;;;;;-3.90;63.91;97881.69;5043794;28;20064;-61
2022/03/11 01:10:41;;;;;;;10.05;3.85;;;;;;;-3.78;64.18;97879.59;5043976;28;20052;-62
2022/03/11 01:13:08;;;;;;;9.13;2.72;;;;;;;-3.92;64.70;97874.91;5043569;28;20590;-55
2022/03/11 01:15:35;;;;;;;9.65;3.45;;;;;;;-4.01;66.06;97876.44;5043563;28;20063;-57
2022/03/11 01:18:02;;;;;;;6.95;2.90;;;;;;;-3.76;66.00;97879.38;5043824;28;20955;-54
2022/03/11 01:20:28;;;;;;;6.53;3.05;;;;;;;-3.87;66.09;97883.09;5043397;28;20063;-54
2022/03/11 01:22:55;;;;;;;8.43;2.75;;;;;;;-4.46;67.93;97816.53;5042970;28;20052;-62
2022/03/11 01:25:22;;;;;;;9.95;4.18;;;;;;;-3.85;68.77;97880.91;5043169;28;20079;-62
2022/03/11 01:27:48;;;;;;;11.02;4.32;;;;;;;-3.76;68.98;97869.34;5043003;28;20061;-62
2022/03/11 01:30:16;;;;;;;16.13;5.38;;;;;;;-4.06;69.64;97839.34;5041670;28;20075;-55
2022/03/11 01:32:43;;;;;;;14.02;5.38;;;;;;;-4.03;68.86;97840.72;5041515;28;20049;-62
2022/03/11 01:35:11;;;;;;;12.02;5.50;;;;;;;-4.03;69.29;97805.56;5042840;28;20427;-55
2022/03/11 01:37:38;;;;;;;12.23;4.63;;;;;;;-3.95;69.65;97816.72;5043266;28;20057;-62
2022/03/11 01:40:05;;;;;;;11.82;3.30;;;;;;;-3.45;67.38;97881.22;5043630;28;20049;-55
2022/03/11 01:42:34;;;;;;;12.95;3.90;;;;;;;-3.73;65.92;97819.31;5042910;28;20045;-58
2022/03/11 01:45:02;;;;;;;7.20;2.38;;;;;;;-3.90;65.42;97813.22;5035418;28;20061;-54
2022/03/11 01:47:29;;;;;;;7.38;3.38;;;;;;;-3.48;64.11;97877.13;5023223;28;20053;-62
2022/03/11 01:49:56;;;;;;;8.73;3.13;;;;;;;-3.78;62.34;97835.50;5023565;28;20064;-62
2022/03/11 01:52:22;;;;;;;4.93;2.47;;;;;;;-3.60;60.61;97878.41;5023499;28;20067;-55
2022/03/11 01:54:50;;;;;;;11.85;4.18;;;;;;;-4.11;60.76;97784.41;5023462;28;20049;-55
2022/03/11 01:57:17;;;;;;;10.38;4.43;;;;;;;-3.70;60.14;97879.13;5023096;28;20046;-55
2022/03/11 01:59:44;;;;;;;7.80;2.95;;;;;;;-3.71;59.27;97876.69;5022897;28;20065;-55
2022/03/11 02:02:11;;;;;;;8.52;3.53;;;;;;;-3.75;59.46;97881.00;5025921;28;20065;-62
2022/03/11 02:04:39;;;;;;;8.80;2.65;;;;;;;-3.73;59.48;97879.66;5026509;28;20249;-62
2022/03/11 02:07:06;;;;;;;9.05;3.33;;;;;;;-3.68;60.57;97881.59;5026839;28;20072;-62
2022/03/11 02:09:33;;;;;;;6.40;3.22;;;;;;;-3.67;59.52;97883.22;5057846;28;20459;-62
2022/03/11 02:12:00;;;;;;;8.07;2.63;;;;;;;-3.82;59.89;97888.50;5026401;28;20056;-55
2022/03/11 02:14:26;;;;;;;7.78;2.75;;;;;;;-3.76;59.79;97884.78;5026162;28;20057;-63
2022/03/11 02:16:53;;;;;;;10.30;3.22;;;;;;;-3.71;59.94;97882.09;5025819;28;20053;-62
2022/03/11 02:19:20;;;;;;;7.18;2.70;;;;;;;-3.72;58.94;97977.91;5057525;28;20333;-63
2022/03/11 02:21:48;;;;;;;6.25;2.72;;;;;;;-3.82;59.36;97885.81;5026108;28;20053;-56
2022/03/11 02:24:15;;;;;;;6.47;2.35;;;;;;;-3.86;58.42;97873.88;5026207;28;20049;-62
2022/03/11 02:26:42;;;;;;;11.82;3.63;;;;;;;-4.09;60.10;97876.91;5026185;28;20057;-62
2022/03/11 02:29:09;;;;;;;8.98;3.00;;;;;;;-4.25;60.17;97804.84;5026552;28;20061;-55
2022/03/11 02:31:36;;;;;;;3.58;1.27;;;;;;;-4.09;58.82;97879.59;5026388;28;20440;-58
2022/03/11 02:34:04;;;;;;;9.55;3.13;;;;;;;-4.74;57.41;97799.50;5025757;28;20060;-62
2022/03/11 02:36:31;;;;;;;6.93;2.25;;;;;;;-4.15;57.75;97886.03;5057695;28;20158;-62
2022/03/11 02:38:58;;;;;;;8.15;3.15;;;;;;;-4.17;58.20;97893.63;5026184;28;20056;-55
2022/03/11 02:41:24;;;;;;;10.70;3.25;;;;;;;-4.71;58.01;97817.91;5025903;28;20053;-58
2022/03/11 02:43:51;;;;;;;8.15;2.55;;;;;;;-4.59;56.56;97819.66;5024396;28;20060;-61
2022/03/11 02:46:18;;;;;;;8.30;1.27;;;;;;;-4.25;54.77;97891.38;5043387;28;20064;-56
2022/03/11 02:48:44;;;;;;;4.65;1.65;;;;;;;-4.78;56.02;97814.63;5045351;28;20052;-62
2022/03/11 02:51:11;;;;;;;5.68;2.10;;;;;;;-4.21;53.38;97906.00;5045845;28;20053;-54
2022/03/11 02:53:40;;;;;;;2.38;1.65;;;;;;;-4.22;54.00;97901.69;5045485;28;20053;-62
2022/03/11 02:56:09;;;;;;;6.13;1.85;;;;;;;-4.33;55.91;97905.34;5044000;28;20063;-57
2022/03/11 02:58:40;;;;;;;4.13;1.48;;;;;;;-4.48;54.42;97891.66;5045260;28;20510;-62
2022/03/11 03:01:08;;;;;;;4.03;1.92;;;;;;;-4.88;54.06;97817.19;5043907;28;20608;-62
2022/03/11 03:03:35;;;;;;;3.25;1.90;;;;;;;-4.90;54.29;97851.75;5044063;28;20061;-56
2022/03/11 03:06:03;;;;;;;4.85;1.60;;;;;;;-4.48;54.26;97903.31;5043487;28;20511;-61
2022/03/11 03:08:30;;;;;;;6.28;1.95;;;;;;;-4.47;54.68;97913.03;5044006;28;20072;-62
2022/03/11 03:10:57;;;;;;;5.10;2.47;;;;;;;-4.66;54.62;97915.25;5045170;28;20053;-54
2022/03/11 03:13:24;;;;;;;7.47;2.97;;;;;;;-4.89;55.39;97856.09;5044142;28;20060;-55
2022/03/11 03:15:50;;;;;;;5.68;2.38;;;;;;;-4.34;56.58;97909.94;5045183;28;20052;-63
2022/03/11 03:18:18;;;;;;;9.18;2.95;;;;;;;-4.47;55.02;97893.31;5044940;28;20086;-57
2022/03/11 03:20:45;;;;;;;3.55;1.60;;;;;;;-4.97;55.40;97824.13;5044950;28;20500;-62
2022/03/11 03:23:12;;;;;;;7.05;2.10;;;;;;;-4.41;56.12;97913.91;5043543;28;20167;-62
2022/03/11 03:25:38;;;;;;;6.47;2.70;;;;;;;-4.77;56.34;97867.56;5044878;28;20063;-62
2022/03/11 03:28:05;;;;;;;9.32;3.30;;;;;;;-4.38;56.60;97908.00;5045509;28;20079;-62
2022/03/11 03:30:32;;;;;;;11.68;3.75;;;;;;;-4.87;57.28;97808.00;5044113;28;20060;-61
2022/03/11 03:32:59;;;;;;;6.35;2.47;;;;;;;-4.17;55.74;97909.84;5045051;28;20049;-54
2022/03/11 03:35:25;;;;;;;3.42;1.70;;;;;;;-4.96;56.16;97814.13;5044858;28;20072;-55
2022/03/11 03:37:52;;;;;;;4.22;1.80;;;;;;;-4.47;57.18;97920.34;5044811;28;20045;-62
2022/03/11 03:40:19;;;;;;;5.65;2.53;;;;;;;-4.26;57.91;97906.78;5043194;28;20059;-62
2022/03/11 03:42:47;;;;;;;6.28;2.08;;;;;;;-4.32;58.22;97917.78;5044569;28;20061;-62
2022/03/11 03:45:15;;;;;;;5.85;2.35;;;;;;;-4.69;58.02;97877.09;5035866;28;20115;-62
2022/03/11 03:47:41;;;;;;;6.78;1.92;;;;;;;-4.31;57.88;97914.00;5025288;28;20088;-55
2022/03/11 03:50:09;;;;;;;6.68;2.35;;;;;;;-4.71;58.81;97871.97;5024259;28;20049;-62
2022/03/11 03:52:35;;;;;;;3.67;1.75;;;;;;;-4.73;58.57;97922.72;5024564;28;20538;-56
2022/03/11 03:55:02;;;;;;;5.80;1.85;;;;;;;-4.96;58.51;97868.97;5024202;28;20056;-62
2022/03/11 03:57:29;;;;;;;11.68;3.28;;;;;;;-4.57;59.47;97917.50;5024251;28;20049;-55
2022/03/11 03:59:55;;;;;;;10.40;3.13;;;;;;;-4.48;59.94;97929.50;5006019;28;20060;-57
2022/03/11 04:02:22;;;;;;;6.57;2.47;;;;;;;-4.62;60.28;97929.09;5046652;28;20068;-62
2022/03/11 04:04:49;;;;;;;10.43;2.65;;;;;;;-4.53;60.95;97927.56;5055862;28;20049;-54
2022/03/11 04:07:16;;;;;;;9.90;4.07;;;;;;;-4.49;61.10;97931.41;5024029;28;20053;-58
2022/03/11 04:09:42;;;;;;;12.00;3.40;;;;;;;-4.49;61.02;97944.09;5055777;28;20060;-55
2022/03/11 04:12:09;;;;;;;10.23;3.83;;;;;;;-4.32;61.78;97923.19;5023861;28;20149;-62
2022/03/11 04:14:36;;;;;;;4.82;2.33;;;;;;;-4.45;61.55;97929.00;5023987;28;20049;-55
2022/03/11 04:17:03;;;;;;;12.45;3.67;;;;;;;-4.49;63.23;97938.69;5023919;28;20049;-63
2022/03/11 04:19:30;;;;;;;8.60;3.40;;;;;;;-4.24;61.85;97941.69;5024158;28;20444;-55
2022/03/11 04:21:57;;;;;;;6.57;2.65;;;;;;;-4.05;61.57;97945.66;5023953;28;20061;-55
2022/03/11 04:24:24;;;;;;;12.20;3.53;;;;;;;-4.00;61.50;97927.56;5023426;28;20060;-55
2022/03/11 04:26:52;;;;;;;11.85;3.95;;;;;;;-4.23;62.16;97873.00;5023410;28;20057;-62
2022/03/11 04:29:18;;;;;;;10.65;3.28;;;;;;;-4.01;61.21;97928.66;5024220;28;20057;-62
2022/03/11 04:31:45;;;;;;;15.18;3.67;;;;;;;-4.92;61.91;97848.50;5024075;28;20061;-61
2022/03/11 04:34:12;;;;;;;10.65;2.45;;;;;;;-4.70;61.86;97922.25;5055575;28;20049;-61
2022/03/11 04:36:38;;;;;;;9.65;3.55;;;;;;;-4.46;63.10;97922.78;5023953;28;20049;-62
2022/03/11 04:39:07;;;;;;;7.53;3.30;;;;;;;-4.63;61.96;97930.97;5023882;28;20045;-57
2022/03/11 04:41:35;;;;;;;12.20;3.33;;;;;;;-4.92;62.11;97891.72;5023777;28;20053;-54
2022/03/11 04:44:03;;;;;;;7.72;3.17;;;;;;;-4.99;62.41;97880.28;5055589;28;20508;-62
2022/03/11 04:46:30;;;;;;;7.40;3.08;;;;;;;-4.46;62.03;97933.59;5042047;28;20053;-62
2022/03/11 04:48:57;;;;;;;9.50;3.67;;;;;;;-4.48;61.26;97940.31;5043583;28;20053;-54
2022/03/11 04:51:25;;;;;;;9.63;3.00;;;;;;;-4.37;61.05;97939.38;5043549;28;20068;-56
2022/03/11 04:53:52;;;;;;;6.38;2.50;;;;;;;-5.24;61.50;97847.56;5043760;28;20053;-55
2022/03/11 04:56:19;;;;;;;7.95;2.88;;;;;;;-4.90;61.73;97926.59;5043515;28;20788;-56
2022/03/11 04:58:46;;;;;;;9.93;2.70;;;;;;;-4.83;62.39;97949.63;5041488;28;20131;-62
2022/03/11 05:01:13;;;;;;;8.93;3.97;;;;;;;-5.28;61.81;97843.69;5043008;28;20061;-62
2022/03/11 05:03:40;;;;;;;9.32;3.35;;;;;;;-4.41;58.14;97949.06;5043128;28;20048;-62
2022/03/11 05:06:09;;;;;;;9.38;3.10;;;;;;;-4.43;57.64;97943.91;5043147;28;20499;-55
2022/03/11 05:08:36;;;;;;;7.88;2.90;;;;;;;-4.27;58.18;97942.19;5043008;28;20049;-55
2022/03/11 05:11:03;;;;;;;11.13;3.30;;;;;;;-4.68;56.82;97855.22;5043299;28;20052;-61
2022/03/11 05:13:30;;;;;;;8.25;3.38;;;;;;;-4.52;56.18;97868.94;5042667;28;20056;-62
2022/03/11 05:15:57;;;;;;;10.10;2.80;;;;;;;-3.83;55.47;97949.13;5041515;28;20060;-62
2022/03/11 05:18:25;;;;;;;7.18;2.45;;;;;;;-3.96;53.46;97944.13;5043043;28;20821;-55
2022/03/11 05:20:52;;;;;;;7.63;3.30;;;;;;;-3.78;53.08;97941.84;5042999;28;20171;-56
2022/03/11 05:23:19;;;;;;;6.97;2.55;;;;;;;-3.94;54.32;97950.09;5041629;28;20059;-55
2022/03/11 05:25:46;;;;;;;7.60;3.08;;;;;;;-3.77;54.37;97953.50;5042261;28;20053;-54
2022/03/11 05:28:12;;;;;;;1.65;0.70;;;;;;;-4.68;54.42;97898.47;5043069;28;20559;-62
2022/03/11 05:30:40;;;;;;;6.53;2.20;;;;;;;-4.43;55.03;97960.13;5042782;28;20140;-61
2022/03/11 05:33:12;;;;;;;;;;;;;;;-4.29;54.79;97960.53;5043614;28;20049;-61
2022/03/11 05:35:38;;;;;;;8.93;3.13;;;;;;;-4.31;55.19;97965.38;5043216;28;19932;-55
2022/03/11 05:38:05;;;;;;;8.82;2.72;;;;;;;-4.61;55.42;97933.41;5046658;28;20056;-61
2022/03/11 05:40:32;;;;;;;4.95;1.67;;;;;;;-4.29;55.01;97955.13;5044956;28;20045;-61
2022/03/11 05:42:58;;;;;;;8.27;2.83;;;;;;;-4.45;56.20;97958.72;5046670;28;20159;-55
2022/03/11 05:45:25;;;;;;;5.80;2.58;;;;;;;-4.16;56.75;97952.03;5045991;28;20060;-56
2022/03/11 05:47:52;;;;;;;6.97;2.83;;;;;;;-3.81;55.75;97958.59;5046312;28;20053;-60
2022/03/11 05:50:19;;;;;;;8.30;2.80;;;;;;;-3.86;55.22;97960.47;5045325;28;20052;-57
2022/03/11 05:52:47;;;;;;;7.90;2.58;;;;;;;-3.66;55.01;97956.06;5046091;28;20080;-57
2022/03/11 05:55:13;;;;;;;9.18;3.10;;;;;;;-3.57;55.63;97959.09;5045263;28;20071;-63
2022/03/11 05:57:40;;;;;;;9.00;3.25;;;;;;;-3.97;55.37;97953.31;5046705;28;20053;-56
2022/03/11 06:00:07;;;;;;;8.45;3.35;;;;;;;-3.84;54.94;97915.81;5046483;28;20458;-55
2022/03/11 06:02:38;;;;;;;7.95;3.08;;;;;;;-3.61;55.47;97958.81;5046015;28;20492;-54
2022/03/11 06:05:06;;;;;;;10.93;3.47;;;;;;;-3.53;54.67;97923.16;5044836;28;20141;-63
2022/03/11 06:07:32;;;;;;;9.70;3.05;;;;;;;-3.55;55.47;97984.03;5046423;28;20063;-63
2022/03/11 06:09:59;;;;;;;11.63;4.13;;;;;;;-3.42;55.25;97962.75;5046318;28;20063;-55
2022/03/11 06:12:26;;;;;;;4.38;1.98;;;;;;;-3.58;55.03;97968.28;5044600;28;20511;-55
2022/03/11 06:14:52;;;;;;;6.82;2.22;;;;;;;-3.42;55.23;97956.53;5046132;28;20565;-62
2022/03/11 06:17:19;;;;;;;7.40;2.17;;;;;;;-3.65;56.52;97967.72;5045800;28;20052;-56
2022/03/11 06:19:46;;;;;;;8.80;3.28;;;;;;;-3.68;55.94;97968.19;5045732;28;20045;-63
2022/03/11 06:22:12;;;;;;;7.30;3.30;;;;;;;-4.26;58.25;97933.00;5046248;28;20056;-62
2022/03/11 06:24:39;;;;;;;4.88;1.73;;;;;;;-4.47;59.68;97967.09;5045911;28;20049;-62
2022/03/11 06:27:07;;;;;;;6.18;2.35;;;;;;;-4.43;60.99;97976.34;5044260;28;20060;-55
2022/03/11 06:29:34;;;;;;;8.73;2.92;;;;;;;-4.47;61.32;97960.91;5044396;28;20064;-62
2022/03/11 06:32:00;;;;;;;5.28;2.60;;;;;;;-4.51;61.27;97974.09;5044129;28;20275;-54
2022/03/11 06:34:27;;;;;;;5.40;2.50;;;;;;;-4.67;63.45;97980.38;5045786;28;20048;-63
2022/03/11 06:36:54;;;;;;;11.57;4.40;;;;;;;-4.19;62.65;97971.47;5045570;28;20049;-57
2022/03/11 06:39:20;;;;;;;12.02;3.35;;;;;;;-3.92;62.27;97966.91;5045956;28;20063;-56
2022/03/11 06:41:47;;;;;;;8.85;3.53;;;;;;;-4.26;62.85;97987.06;5043850;28;20443;-62
2022/03/11 06:44:16;;;;;;;4.30;2.03;;;;;;;-4.42;63.07;97986.09;5045503;28;20071;-55
2022/03/11 06:46:42;;;;;;;6.35;2.65;;;;;;;-4.21;63.02;97989.84;5045006;28;20056;-58
2022/03/11 06:49:10;;;;;;;10.77;1.45;;;;;;;-4.18;62.36;97967.69;5044940;28;20056;-56
2022/03/11 06:51:38;;;;;;;8.85;2.65;;;;;;;-4.22;62.59;97999.03;5045168;28;20059;-55
2022/03/11 06:54:07;;;;;;;6.65;2.08;;;;;;;-3.92;61.11;97991.25;5045734;28;20063;-63
2022/03/11 06:56:35;;;;;;;6.65;2.47;;;;;;;-3.90;61.01;98002.63;5044460;28;20128;-63
2022/03/11 06:59:03;;;;;;;3.95;2.13;;;;;;;-3.78;62.08;97995.19;5043987;28;20152;-57
2022/03/11 07:01:30;;;;;;;10.55;3.33;;;;;;;-3.82;59.09;97999.47;5045325;28;20447;-56
2022/03/11 07:03:58;;;;;;;12.07;4.15;;;;;;;-3.91;60.91;97946.88;5045421;28;20061;-60
2022/03/11 07:06:25;;;;;;;3.92;2.22;;;;;;;-3.49;58.00;98004.66;5040093;28;20052;-62
2022/03/11 07:08:52;;;;;;;6.43;2.42;;;;;;;-4.27;58.72;97944.91;5038926;28;20060;-55
2022/03/11 07:11:19;;;;;;;16.13;4.18;;;;;;;-4.14;57.75;97956.13;5042830;28;20515;-63
2022/03/11 07:13:46;;;;;;;8.45;2.35;;;;;;;-4.20;55.99;97991.47;5025015;28;20428;-58
2022/03/11 07:16:13;;;;;;;8.95;3.17;;;;;;;-4.38;57.36;97962.06;5028096;28;20059;-56
2022/03/11 07:18:40;;;;;;;5.82;2.17;;;;;;;-4.33;56.30;98002.69;5043500;28;20413;-56
2022/03/11 07:21:07;;;;;;;3.83;1.38;;;;;;;-5.27;56.96;97826.47;5042813;28;20044;-54
2022/03/11 07:23:34;;;;;;;7.55;3.33;;;;;;;-3.66;56.31;98009.38;5043350;28;20079;-59
2022/03/11 07:26:02;;;;;;;11.23;3.30;;;;;;;-3.53;55.80;98003.53;5043242;28;20091;-63
2022/03/11 07:28:29;;;;;;;7.47;3.28;;;;;;;-3.37;54.63;98008.81;5044159;28;20049;-63
2022/03/11 07:30:56;;;;;;;11.32;3.38;;;;;;;-3.65;54.83;97967.72;5043803;28;20048;-56
2022/03/11 07:33:23;;;;;;;13.18;3.20;;;;;;;-4.25;53.95;97926.53;5042336;28;20523;-59
2022/03/11 07:35:50;;;;;;;6.13;2.60;;;;;;;-3.67;54.06;98005.03;5043870;28;20132;-55
2022/03/11 07:38:17;;;;;;;5.13;1.10;;;;;;;-4.98;52.64;97844.09;5043222;28;20051;-57
2022/03/11 07:40:44;;;;;;;7.85;3.20;;;;;;;-3.68;52.06;98017.75;5041561;28;20060;-60
2022/03/11 07:43:13;;;;;;;9.05;2.42;;;;;;;-3.91;52.02;98017.22;5043010;28;20063;-58
2022/03/11 07:45:40;;;;;;;10.00;2.95;;;;;;;-3.50;52.33;98008.44;5043726;28;20053;-56
2022/03/11 07:48:07;;;;;;;3.10;1.45;;;;;;;-3.92;52.37;97950.69;5041974;28;20499;-60
2022/03/11 07:50:35;;;;;;;10.18;3.25;;;;;;;-3.78;51.83;97998.69;5043131;28;20099;-59
2022/03/11 07:53:02;;;;;;;9.30;2.40;;;;;;;-3.69;51.86;98018.00;5042681;28;20684;-55
2022/03/11 07:55:29;;;;;;;6.97;2.17;;;;;;;-3.81;50.70;97968.63;5041980;28;20049;-57
2022/03/11 07:57:56;;;;;;;10.23;3.75;;;;;;;-4.41;49.97;97843.63;5042495;28;20057;-61
2022/03/11 08:00:24;;;;;;;7.57;3.55;;;;;;;-3.45;50.70;97957.03;5040832;28;20049;-60
2022/03/11 08:02:50;;;;;;;2.38;1.33;;;;;;;-3.29;49.20;98023.78;5023378;28;20064;-59
2022/03/11 08:05:18;;;;;;;9.68;2.47;;;;;;;-3.10;50.23;98019.63;5031078;28;20049;-60
2022/03/11 08:07:49;;;;;;;7.35;2.70;;;;;;;-2.75;50.15;98017.13;5041516;28;20064;-58
2022/03/11 08:10:17;;;;;;;4.15;2.13;;;;;;;-2.91;49.47;97991.03;5041461;28;20542;-58
2022/03/11 08:12:44;;;;;;;5.65;2.28;;;;;;;-2.24;48.37;98005.47;5042541;28;20063;-56
2022/03/11 08:15:14;;;;;;;7.60;2.45;;;;;;;-2.46;48.88;98004.84;5042372;28;20519;-55
2022/03/11 08:17:41;;;;;;;8.35;2.63;;;;;;;-2.33;48.94;98009.78;5043531;28;20576;-57
2022/03/11 08:20:09;;;;;;;7.07;2.47;;;;;;;-2.41;49.29;98002.16;5043108;28;20461;-62
2022/03/11 08:22:37;;;;;;;6.57;3.08;;;;;;;-2.09;48.00;98019.13;5040760;28;20081;-60
2022/03/11 08:25:05;;;;;;;4.50;1.77;;;;;;;-2.20;47.27;97993.03;5042286;28;20045;-56
2022/03/11 08:27:32;;;;;;;8.85;3.30;;;;;;;-2.06;48.28;97994.16;5043148;28;20067;-62
2022/03/11 08:29:58;;;;;;;6.95;3.22;;;;;;;-3.11;48.09;97847.28;5043354;28;20077;-55
2022/03/11 08:32:29;;;;;;;5.15;1.98;;;;;;;-3.47;48.03;97861.72;5042276;28;20467;-64
2022/03/11 08:34:56;;;;;;;5.18;2.00;;;;;;;-2.08;49.04;97995.50;5042714;28;20076;-57
2022/03/11 08:37:32;;;;;;;4.70;1.23;;;;;;;-2.19;48.07;97896.97;5042307;28;20131;-61
2022/03/11 08:40:02;;;;;;;6.82;2.50;;;;;;;-1.36;46.58;97979.06;5041059;28;20063;-58
2022/03/11 08:42:29;;;;;;;7.65;3.03;;;;;;;-1.48;47.22;97978.50;5043043;28;20439;-56
2022/03/11 08:44:56;;;;;;;4.35;2.38;;;;;;;-1.82;46.21;97989.84;5043056;28;20053;-61
2022/03/11 08:47:23;;;;;;;9.50;3.42;;;;;;;-1.35;45.15;97984.22;5041783;28;20061;-62
2022/03/11 08:49:49;;;;;;;9.55;3.72;;;;;;;-1.58;45.44;97849.75;5042269;28;20048;-62
2022/03/11 08:52:16;;;;;;;12.20;3.58;;;;;;;-0.71;45.18;97979.81;5041324;28;20049;-61
2022/03/11 08:54:43;;;;;;;6.45;1.92;;;;;;;-1.58;45.97;97980.13;5042257;28;20049;-59
2022/03/11 08:57:09;;;;;;;8.05;2.90;;;;;;;-1.73;47.04;98004.56;5040682;28;20045;-55
2022/03/11 08:59:36;;;;;;;3.80;1.38;;;;;;;-1.35;45.68;97972.53;5042306;28;20053;-63
2022/03/11 09:02:07;;;;;;;3.83;1.90;;;;;;;-2.64;47.10;97856.16;5039684;28;20053;-60
2022/03/11 09:04:35;;;;;;;9.43;4.25;;;;;;;-1.58;47.20;97968.44;5042339;28;20069;-56
2022/03/11 09:07:03;;;;;;;10.13;2.97;;;;;;;-1.80;46.69;97971.41;5042384;28;20572;-60
2022/03/11 09:09:32;;;;;;;7.43;3.35;;;;;;;-1.56;47.94;97972.53;5043941;28;20128;-62
2022/03/11 09:11:59;;;;;;;12.50;2.63;;;;;;;-0.89;47.68;97960.56;5044155;28;20064;-66
2022/03/11 09:14:26;;;;;;;6.90;1.92;;;;;;;-1.67;47.35;97967.34;5051274;28;20045;-61
2022/03/11 09:16:53;;;;;;;8.65;2.22;;;;;;;-2.81;47.32;97847.41;5034002;28;20115;-61
2022/03/11 09:19:20;;;;;;;3.20;1.73;;;;;;;-2.00;47.43;97976.81;5046721;28;20049;-59
2022/03/11 09:21:47;;;;;;;1.75;0.73;;;;;;;-3.34;47.19;97667.09;5046860;28;20111;-57
2022/03/11 09:24:15;;;;;;;10.35;2.67;;;;;;;-1.59;47.06;97932.34;5046234;28;20048;-58
2022/03/11 09:26:42;;;;;;;10.35;2.97;;;;;;;-1.94;47.49;97893.47;5045654;28;20061;-64
2022/03/11 09:29:19;;;;;;;9.98;3.60;;;;;;;-0.65;46.02;97956.16;5046611;28;20223;-58
2022/03/11 09:31:46;;;;;;;8.95;2.65;;;;;;;-0.96;46.39;97939.06;5046061;28;20048;-58
2022/03/11 09:34:13;;;;;;;9.38;2.47;;;;;;;-1.92;46.67;97930.13;5045898;28;20424;-57
2022/03/11 09:36:43;;;;;;;8.32;3.67;;;;;;;-1.68;47.06;97925.81;5046130;28;20052;-56
2022/03/11 09:39:10;;;;;;;7.13;2.88;;;;;;;-0.93;46.39;97937.72;5040402;28;20461;-61
2022/03/11 09:41:37;;;;;;;11.50;4.15;;;;;;;-0.94;46.09;97938.81;5046182;28;20068;-62
2022/03/11 09:44:04;;;;;;;11.52;4.15;;;;;;;-0.78;46.11;97902.31;5044610;28;20041;-58
2022/03/11 09:46:33;;;;;;;14.15;5.65;;;;;;;-1.08;45.05;97820.84;5045034;28;20433;-55
2022/03/11 09:49:02;;;;;;;7.60;2.50;;;;;;;-1.20;45.23;97833.94;5037215;28;20144;-63
2022/03/11 09:51:34;;;;;;;8.05;3.63;;;;;;;-1.00;45.69;97931.75;5044456;28;20144;-66
2022/03/11 09:54:02;;;;;;;5.53;2.28;;;;;;;-1.08;45.10;97937.75;5046373;28;20152;-59
2022/03/11 09:56:29;;;;;;;7.10;2.90;;;;;;;-1.43;44.57;97815.50;5045281;28;20052;-56
2022/03/11 09:58:56;;;;;;;4.10;1.63;;;;;;;-0.82;44.43;97884.94;5045841;28;20053;-61
2022/03/11 10:01:23;;;;;;;10.10;3.50;;;;;;;-2.82;44.89;97496.16;5045123;28;20170;-62
2022/03/11 10:03:51;;;;;;;3.22;1.55;;;;;;;-0.23;45.67;97899.38;5042315;28;20118;-61
2022/03/11 10:06:37;;;;;;;5.50;2.20;;;;;;;-0.26;45.56;97886.31;5042334;28;20535;-57
2022/03/11 10:09:04;;;;;;;6.72;2.90;;;;;;;-0.26;44.65;97870.00;5044449;28;20065;-57
2022/03/11 10:11:31;;;;;;;4.03;2.13;;;;;;;0.16;44.19;97908.38;5054962;28;20438;-59
2022/03/11 10:14:06;;;;;;;9.95;2.55;;;;;;;0.56;45.07;97910.81;5042128;28;20061;-56
2022/03/11 10:16:34;;;;;;;7.78;3.20;;;;;;;0.22;45.55;97901.81;5043548;28;20073;-56
2022/03/11 10:19:06;;;;;;;8.38;1.92;;;;;;;-0.48;44.02;97910.38;5044859;28;20480;-61
2022/03/11 10:21:38;;;;;;;5.40;2.10;;;;;;;-0.53;46.59;97916.66;5041836;28;20439;-55
2022/03/11 10:24:11;;;;;;;6.70;2.70;;;;;;;0.20;44.52;97901.28;5045713;28;20588;-60
2022/03/11 10:26:50;;;;;;;6.20;2.08;;;;;;;0.08;43.93;97887.19;5045126;28;20053;-60
2022/03/11 10:29:20;;;;;;;8.80;2.47;;;;;;;-0.39;44.80;97878.75;5045665;28;20045;-60
2022/03/11 10:31:50;;;;;;;8.57;3.70;;;;;;;-0.43;44.46;97888.59;5043584;28;20523;-60
2022/03/11 10:34:33;;;;;;;7.63;2.63;;;;;;;-0.43;44.12;97872.25;5045544;28;20152;-60
2022/03/11 10:37:00;;;;;;;6.75;3.22;;;;;;;-0.29;44.11;97867.84;5045619;28;20063;-56
2022/03/11 10:39:37;;;;;;;3.92;1.63;;;;;;;-0.67;44.86;97849.53;5044579;28;20056;-61
2022/03/11 10:42:16;;;;;;;10.43;3.15;;;;;;;-0.16;44.46;97867.22;5045092;28;20474;-58
2022/03/11 10:45:08;;;;;;;2.47;1.67;;;;;;;-0.10;43.49;97869.63;5043171;28;20550;-58
2022/03/11 10:47:37;;;;;;;6.10;2.08;;;;;;;-0.13;43.69;97839.44;5031594;28;20136;-59
2022/03/11 10:50:08;;;;;;;6.05;2.28;;;;;;;-0.22;44.85;97862.88;5045397;28;20085;-57
2022/03/11 10:52:36;;;;;;;10.10;1.88;;;;;;;-0.62;44.67;97857.66;5045025;28;20067;-61
2022/03/11 10:55:28;;;;;;;7.57;3.08;;;;;;;-1.00;44.92;97790.38;5044820;28;20049;-58
2022/03/11 10:58:04;;;;;;;8.63;3.38;;;;;;;-0.30;45.12;97790.00;5044821;28;20052;-60
2022/03/11 11:00:36;;;;;;;6.50;2.28;;;;;;;-0.31;44.24;97850.97;5043761;28;20247;-59
2022/03/11 11:03:08;;;;;;;5.35;2.70;;;;;;;-0.49;43.74;97852.41;5044819;28;20053;-58
2022/03/11 11:05:36;;;;;;;5.20;2.78;;;;;;;-0.77;44.18;97828.63;5043353;28;20140;-57
2022/03/11 11:08:05;;;;;;;7.40;3.78;;;;;;;-0.93;45.19;97848.81;5042709;28;20064;-57
2022/03/11 11:10:35;;;;;;;10.80;3.72;;;;;;;-0.44;45.80;97837.97;5042631;28;20049;-61
2022/03/11 11:13:01;;;;;;;3.65;1.42;;;;;;;-2.13;44.44;97662.53;5044717;28;20045;-57
2022/03/11 11:15:28;;;;;;;7.38;2.97;;;;;;;-1.01;44.60;97826.81;5043737;28;20053;-61
2022/03/11 11:17:55;;;;;;;8.82;2.92;;;;;;;-1.47;45.42;97746.53;5042995;28;20443;-59
2022/03/11 11:20:40;;;;;;;8.05;3.80;;;;;;;-0.87;45.77;97812.34;5044674;28;20049;-61
2022/03/11 11:23:09;;;;;;;6.00;2.50;;;;;;;-4.21;44.17;97227.28;5042913;28;20492;-59
2022/03/11 11:25:37;;;;;;;5.75;2.22;;;;;;;-0.32;44.42;97813.97;5042671;28;20056;-60
2022/03/11 11:28:08;;;;;;;5.13;2.25;;;;;;;-0.44;43.14;97778.09;5042849;28;20053;-59
2022/03/11 11:30:36;;;;;;;5.65;2.38;;;;;;;-0.22;43.94;97824.75;5042863;28;20045;-60
2022/03/11 11:33:04;;;;;;;6.60;3.15;;;;;;;-0.79;43.70;97824.56;5042582;28;20040;-57
2022/03/11 11:35:32;;;;;;;3.88;1.85;;;;;;;-5.32;44.29;97140.81;5043965;28;20507;-60